Time;durP1;ratioP1;P1;durP2;ratioP2;P2;SDS_P1;SDS_P2;PMS_P1;PMS_P2;Temp;Humidity;BMP_temperature;BMP_pressure;BME280_temperature;BME280_humidity;BME280_pressure;Samples;Min_cycle;Max_cycle;Signal;HPM_P1;HPM_P2
2021/04/04 00:01:25;;;;;;;25.95;5.30;;;;;;;4.64;76.60;102338.22;6271166;28;20110;-76
2021/04/04 00:04:26;;;;;;;25.48;4.90;;;;;;;4.66;76.47;102337.31;6271516;28;20053;-76
2021/04/04 00:07:27;;;;;;;23.73;5.00;;;;;;;4.71;77.00;102334.69;6271350;28;20044;-75
2021/04/04 00:10:28;;;;;;;29.30;6.80;;;;;;;4.75;76.68;102339.88;6271334;28;20053;-76
2021/04/04 00:13:29;;;;;;;18.85;4.97;;;;;;;4.79;77.29;102346.81;6270718;28;20082;-76
2021/04/04 00:16:30;;;;;;;21.80;4.55;;;;;;;4.69;77.19;102339.06;6271028;28;20432;-76
2021/04/04 00:19:31;;;;;;;21.77;4.93;;;;;;;4.86;77.10;102339.88;6271318;28;20135;-76
2021/04/04 00:22:32;;;;;;;22.70;4.45;;;;;;;4.74;77.72;102340.75;6270972;28;20057;-75
2021/04/04 00:25:33;;;;;;;27.92;4.90;;;;;;;4.73;79.44;102332.97;6271259;28;20140;-75
2021/04/04 00:28:35;;;;;;;20.88;4.60;;;;;;;4.76;78.94;102339.00;6271108;28;20049;-76
2021/04/04 00:31:36;;;;;;;18.05;3.88;;;;;;;4.83;79.08;102329.44;6271002;28;20049;-76
2021/04/04 00:34:37;;;;;;;21.80;3.30;;;;;;;4.80;78.07;102324.25;6270826;28;20049;-76
2021/04/04 00:37:38;;;;;;;27.33;4.60;;;;;;;4.75;78.98;102324.25;6271353;28;20055;-76
2021/04/04 00:40:39;;;;;;;23.23;4.18;;;;;;;4.81;79.11;102320.75;6270937;28;20060;-76
2021/04/04 00:43:41;;;;;;;23.30;4.13;;;;;;;4.89;79.26;102315.53;6270989;28;20124;-76
2021/04/04 00:46:41;;;;;;;17.58;4.47;;;;;;;4.94;79.53;102313.75;6271116;28;20060;-76
2021/04/04 00:49:42;;;;;;;19.27;3.85;;;;;;;4.97;78.73;102313.75;6270953;28;20072;-75
2021/04/04 00:52:44;;;;;;;17.20;3.85;;;;;;;4.97;78.17;102312.00;6270509;28;20048;-76
2021/04/04 00:55:45;;;;;;;17.85;3.88;;;;;;;5.01;78.64;102316.34;6270572;28;20504;-75
2021/04/04 00:58:48;;;;;;;20.05;4.00;;;;;;;4.95;79.24;102318.09;6271056;28;20057;-75
2021/04/04 01:01:49;;;;;;;31.00;4.20;;;;;;;4.96;79.37;102312.91;6270303;28;20049;-76
2021/04/04 01:04:51;;;;;;;19.15;3.78;;;;;;;5.05;78.75;102312.84;6270844;28;20132;-75
2021/04/04 01:07:56;;;;;;;19.35;3.70;;;;;;;4.98;78.79;102305.91;6270659;28;20110;-75
2021/04/04 01:10:57;;;;;;;23.92;4.13;;;;;;;4.95;78.56;102299.84;6270598;28;20056;-76
2021/04/04 01:14:11;;;;;;;22.30;3.10;;;;;;;5.07;78.71;102300.66;6270342;28;20041;-76
2021/04/04 01:17:15;;;;;;;22.85;3.50;;;;;;;4.91;79.07;102300.78;6270714;28;20045;-75
2021/04/04 01:20:18;;;;;;;17.85;3.22;;;;;;;4.88;79.90;102306.84;6270460;28;20053;-75
2021/04/04 01:23:52;;;;;;;16.70;3.78;;;;;;;4.96;80.02;102306.81;6270306;28;20457;-76
2021/04/04 01:26:59;;;;;;;28.70;4.20;;;;;;;5.12;78.64;102321.47;6248849;28;20584;-76
2021/04/04 01:30:02;;;;;;;24.83;3.33;;;;;;;5.02;79.12;102310.25;6274913;28;20060;-76
2021/04/04 01:33:04;;;;;;;16.27;3.28;;;;;;;5.05;79.57;102306.78;6274546;28;20661;-76
2021/04/04 01:36:09;;;;;;;20.27;3.08;;;;;;;5.06;79.24;102311.09;6274676;28;20063;-76
2021/04/04 01:39:12;;;;;;;24.85;3.75;;;;;;;5.13;78.51;102311.91;6274662;28;20136;-76
2021/04/04 01:42:16;;;;;;;21.25;3.28;;;;;;;5.23;78.75;102309.28;6274472;28;20049;-76
2021/04/04 01:45:20;;;;;;;22.85;3.88;;;;;;;5.04;79.11;102302.41;6274363;28;20048;-75
2021/04/04 01:48:21;;;;;;;26.35;4.63;;;;;;;5.09;78.78;102309.34;6274509;28;20054;-76
2021/04/04 01:51:23;;;;;;;25.40;4.78;;;;;;;5.09;78.69;102304.16;6274129;28;20127;-76
2021/04/04 01:54:24;;;;;;;27.08;4.63;;;;;;;5.19;78.58;102306.69;6274325;28;20063;-75
2021/04/04 01:57:27;;;;;;;25.80;4.18;;;;;;;4.97;78.88;102311.16;6274168;28;20429;-75
2021/04/04 02:00:29;;;;;;;21.23;3.53;;;;;;;5.01;79.86;102307.66;6273999;28;20053;-75
2021/04/04 02:03:32;;;;;;;31.27;3.75;;;;;;;4.96;79.57;102307.69;6273967;28;20509;-76
2021/04/04 02:06:34;;;;;;;18.02;3.40;;;;;;;5.01;79.90;102302.44;6273924;28;20060;-75
2021/04/04 02:09:37;;;;;;;20.15;3.38;;;;;;;5.04;80.06;102299.81;6274151;28;20509;-76
2021/04/04 02:12:39;;;;;;;23.40;3.30;;;;;;;4.94;80.10;102298.13;6273601;28;20048;-76
2021/04/04 02:15:42;;;;;;;22.63;3.67;;;;;;;4.95;80.94;102298.16;6273542;28;20060;-75
2021/04/04 02:18:43;;;;;;;25.90;3.67;;;;;;;5.12;79.88;102291.97;6273821;28;20423;-76
2021/04/04 02:21:48;;;;;;;22.02;3.30;;;;;;;5.00;79.97;102290.31;6273472;28;20059;-76
2021/04/04 02:24:49;;;;;;;27.85;4.03;;;;;;;5.14;79.80;102295.44;6273568;28;20056;-76
2021/04/04 02:27:50;;;;;;;19.70;3.58;;;;;;;5.12;79.06;102289.34;6273812;28;20052;-76
2021/04/04 02:30:53;;;;;;;24.52;3.50;;;;;;;5.13;78.03;102288.47;6273361;28;20406;-75
2021/04/04 02:33:58;;;;;;;29.05;4.20;;;;;;;5.00;79.73;102287.69;6273107;28;20041;-76
2021/04/04 02:36:59;;;;;;;30.80;4.60;;;;;;;5.09;78.41;102283.31;6272924;28;20476;-76
2021/04/04 02:40:05;;;;;;;22.20;3.58;;;;;;;5.07;78.05;102277.22;6273151;28;20059;-76
2021/04/04 02:43:08;;;;;;;31.33;4.15;;;;;;;5.14;77.43;102285.88;6272427;28;20060;-76
2021/04/04 02:46:14;;;;;;;33.08;4.97;;;;;;;4.97;78.07;102283.34;6272948;28;20048;-76
2021/04/04 02:49:16;;;;;;;29.55;3.70;;;;;;;4.93;77.79;102266.00;6273159;28;20506;-76
2021/04/04 02:52:19;;;;;;;17.77;3.45;;;;;;;4.91;78.82;102269.53;6272714;28;20132;-76
2021/04/04 02:55:20;;;;;;;28.88;4.65;;;;;;;5.10;77.79;102271.13;6272851;28;20052;-76
2021/04/04 02:58:23;;;;;;;40.40;4.72;;;;;;;5.00;77.08;102264.25;6272646;28;20060;-76
2021/04/04 03:01:29;;;;;;;32.63;3.83;;;;;;;4.93;77.83;102271.22;6272752;28;20052;-76
2021/04/04 03:04:35;;;;;;;30.98;3.75;;;;;;;4.92;77.75;102261.69;6272439;28;20044;-76
2021/04/04 03:07:40;;;;;;;20.60;3.90;;;;;;;5.09;77.07;102264.19;6273010;28;20048;-76
2021/04/04 03:10:42;;;;;;;22.08;3.28;;;;;;;4.87;77.17;102267.78;6272434;28;20048;-75
2021/04/04 03:13:46;;;;;;;37.45;4.18;;;;;;;4.93;77.06;102260.81;6272118;28;20651;-75
2021/04/04 03:16:49;;;;;;;23.52;4.32;;;;;;;5.01;76.93;102269.44;6272621;28;20052;-76
2021/04/04 03:19:52;;;;;;;22.55;4.20;;;;;;;4.92;77.01;102263.44;6272030;28;20106;-76
2021/04/04 03:22:54;;;;;;;28.77;3.47;;;;;;;4.96;76.67;102260.78;6272131;28;20052;-75
2021/04/04 03:25:56;;;;;;;24.10;3.53;;;;;;;4.89;77.63;102260.81;6271943;28;20426;-75
2021/04/04 03:28:58;;;;;;;24.05;3.80;;;;;;;4.89;76.80;102253.00;6272198;28;20049;-76
2021/04/04 03:32:01;;;;;;;23.55;3.17;;;;;;;5.12;75.58;102258.09;6271797;28;20079;-76
2021/04/04 03:35:03;;;;;;;17.08;2.72;;;;;;;4.91;77.92;102254.75;6271964;28;20083;-75
2021/04/04 03:38:08;;;;;;;34.88;3.83;;;;;;;4.89;77.20;102263.44;6271554;28;20057;-75
2021/04/04 03:41:10;;;;;;;28.45;3.60;;;;;;;5.06;76.66;102256.38;6271764;28;20052;-76
2021/04/04 03:44:13;;;;;;;27.05;3.92;;;;;;;5.15;75.75;102251.13;6271515;28;20057;-75
2021/04/04 03:47:15;;;;;;;45.92;6.45;;;;;;;4.84;76.90;102245.22;6271214;28;20098;-75
2021/04/04 03:50:18;;;;;;;24.17;4.18;;;;;;;4.89;77.61;102247.81;6271564;28;20053;-75
2021/04/04 03:53:21;;;;;;;27.88;4.50;;;;;;;5.02;76.02;102249.47;6271316;28;20049;-75
2021/04/04 03:56:26;;;;;;;28.95;3.75;;;;;;;5.00;76.44;102249.47;6271621;28;20053;-75
2021/04/04 03:59:29;;;;;;;33.17;4.22;;;;;;;4.91;76.91;102246.06;6271518;28;20053;-75
2021/04/04 04:02:32;;;;;;;18.40;3.00;;;;;;;4.94;77.33;102246.03;6271494;28;20497;-75
2021/04/04 04:05:33;;;;;;;30.65;4.30;;;;;;;4.93;76.87;102239.97;6271063;28;20505;-75
2021/04/04 04:08:37;;;;;;;21.88;4.97;;;;;;;5.13;76.80;102238.97;6271529;28;20053;-75
2021/04/04 04:11:40;;;;;;;26.27;3.90;;;;;;;4.73;77.80;102237.47;6268276;28;20049;-75
2021/04/04 04:14:41;;;;;;;22.20;3.53;;;;;;;4.74;78.15;102241.81;6271202;28;20049;-75
2021/04/04 04:17:45;;;;;;;23.15;3.70;;;;;;;4.75;77.72;102235.72;6271096;28;20049;-75
2021/04/04 04:20:48;;;;;;;21.88;3.10;;;;;;;4.89;76.88;102226.97;6271242;28;20053;-76
2021/04/04 04:23:49;;;;;;;28.83;3.38;;;;;;;4.73;77.29;102227.06;6271109;28;20049;-75
2021/04/04 04:26:51;;;;;;;19.65;2.90;;;;;;;4.73;77.52;102218.38;6271325;28;20060;-75
2021/04/04 04:29:52;;;;;;;24.63;4.13;;;;;;;4.76;76.75;102216.59;6271025;28;20433;-75
2021/04/04 04:32:58;;;;;;;23.92;4.00;;;;;;;4.87;76.10;102216.56;6271065;28;20060;-75
2021/04/04 04:35:59;;;;;;;29.13;3.92;;;;;;;4.71;75.94;102213.16;6271019;28;20144;-75
2021/04/04 04:39:00;;;;;;;24.00;3.53;;;;;;;4.74;76.08;102209.69;6271288;28;20055;-75
2021/04/04 04:42:01;;;;;;;19.65;3.08;;;;;;;4.84;75.45;102211.38;6270832;28;20045;-76
2021/04/04 04:45:04;;;;;;;16.20;2.83;;;;;;;4.82;74.62;102207.91;6270259;28;20498;-76
2021/04/04 04:48:08;;;;;;;13.80;2.42;;;;;;;4.96;73.12;102200.03;6270439;28;20049;-76
2021/04/04 04:51:10;;;;;;;18.40;2.65;;;;;;;4.82;72.80;102200.97;6270239;28;20519;-76
2021/04/04 04:54:11;;;;;;;23.75;2.75;;;;;;;5.03;71.44;102206.91;6270825;28;20095;-76
2021/04/04 04:57:13;;;;;;;23.48;2.72;;;;;;;4.84;72.73;102196.59;6269346;28;20099;-75
2021/04/04 05:00:15;;;;;;;14.30;2.70;;;;;;;4.78;72.97;102196.66;6273658;28;20048;-75
2021/04/04 05:03:16;;;;;;;13.32;3.55;;;;;;;4.75;73.14;102193.19;6274914;28;20056;-75
2021/04/04 05:06:18;;;;;;;22.80;3.55;;;;;;;4.73;72.55;102198.41;6275442;28;20049;-75
2021/04/04 05:09:20;;;;;;;21.85;2.58;;;;;;;4.69;73.81;102194.09;6275372;28;20131;-75
2021/04/04 05:12:23;;;;;;;19.27;3.20;;;;;;;4.71;72.79;102194.09;6275026;28;20052;-76
2021/04/04 05:15:26;;;;;;;19.40;3.53;;;;;;;4.75;72.30;102195.78;6274872;28;20048;-75
2021/04/04 05:18:28;;;;;;;17.00;3.67;;;;;;;4.76;72.44;102193.16;6291722;22;20497;-74
2021/04/04 05:21:30;;;;;;;25.38;3.22;;;;;;;4.79;73.28;102195.75;6266204;28;20044;-74
2021/04/04 05:24:31;;;;;;;23.60;2.95;;;;;;;4.96;73.27;102198.28;6266065;28;20041;-74
2021/04/04 05:27:33;;;;;;;14.30;3.08;;;;;;;4.83;72.91;102200.09;6264038;28;20517;-74
2021/04/04 05:30:34;;;;;;;23.50;3.30;;;;;;;4.76;72.02;102194.91;6262481;28;20052;-74
2021/04/04 05:33:39;;;;;;;16.60;2.72;;;;;;;4.70;72.33;102190.63;6260706;28;20422;-74
2021/04/04 05:36:51;;;;;;;20.45;2.88;;;;;;;4.68;72.52;102197.59;6269761;28;20056;-73
2021/04/04 05:39:52;;;;;;;18.02;2.80;;;;;;;4.84;70.80;102188.78;6268828;28;20051;-74
2021/04/04 05:42:55;;;;;;;17.55;2.25;;;;;;;4.78;71.40;102195.78;6270491;28;20080;-73
2021/04/04 05:46:02;;;;;;;26.70;3.03;;;;;;;4.87;69.97;102195.72;6254749;28;20072;-73
2021/04/04 05:49:09;;;;;;;13.10;2.50;;;;;;;4.79;70.62;102202.72;6258607;28;20045;-73
2021/04/04 05:52:19;;;;;;;20.73;3.70;;;;;;;4.89;69.79;102199.19;6252373;28;20425;-73
2021/04/04 05:55:30;;;;;;;20.55;3.00;;;;;;;4.85;70.63;102200.06;6249537;28;20069;-73
2021/04/04 05:58:35;;;;;;;22.23;3.10;;;;;;;4.84;70.83;102195.75;6249560;28;20083;-73
2021/04/04 06:01:51;;;;;;;27.08;2.90;;;;;;;4.77;70.38;102194.06;6267692;28;20049;-73
2021/04/04 06:05:02;;;;;;;19.48;2.78;;;;;;;4.77;71.37;102189.72;6273785;28;20040;-73
2021/04/04 06:08:29;;;;;;;16.27;2.50;;;;;;;4.83;70.65;102197.47;6273066;28;20612;-73
2021/04/04 06:11:37;;;;;;;15.77;2.90;;;;;;;4.93;70.80;102195.69;6265571;28;20044;-73
2021/04/04 06:14:49;;;;;;;15.65;4.13;;;;;;;4.83;71.19;102202.69;6273478;28;20041;-74
2021/04/04 06:17:58;;;;;;;15.85;2.72;;;;;;;4.88;71.71;102201.81;6273505;28;20045;-73
2021/04/04 06:21:08;;;;;;;11.70;2.53;;;;;;;5.07;71.22;102201.66;6273484;28;20053;-74
2021/04/04 06:24:18;;;;;;;17.88;3.08;;;;;;;4.99;70.82;102202.56;6273658;28;20490;-74
2021/04/04 06:27:21;;;;;;;;;;;;;;;4.94;71.38;102197.41;6274136;28;20044;-74
2021/04/04 06:33:48;;;;;;;13.25;3.05;;;;;;;5.01;71.50;102195.63;6257898;28;20498;-74
2021/04/04 06:36:59;;;;;;;16.23;2.50;;;;;;;4.91;71.70;102193.97;6248716;28;20053;-74
2021/04/04 06:40:03;;;;;;;15.55;2.40;;;;;;;5.12;72.15;102196.41;6248703;28;20564;-74
2021/04/04 06:43:11;;;;;;;19.20;2.75;;;;;;;5.18;71.06;102193.78;6248212;28;20053;-74
2021/04/04 06:46:28;;;;;;;16.20;2.70;;;;;;;4.98;72.13;102190.44;6248556;28;20057;-74
2021/04/04 06:49:37;;;;;;;15.52;2.70;;;;;;;5.15;72.12;102191.19;6248291;28;20136;-74
2021/04/04 06:52:48;;;;;;;11.68;2.75;;;;;;;5.01;71.72;102193.03;6248223;28;20049;-74
2021/04/04 06:55:58;;;;;;;13.77;2.58;;;;;;;4.93;72.44;102193.06;6248056;28;20045;-75
2021/04/04 06:59:08;;;;;;;13.52;2.20;;;;;;;5.17;72.19;102191.16;6248036;28;20465;-73
2021/04/04 07:02:11;;;;;;;11.27;2.35;;;;;;;5.04;73.39;102185.16;6247826;28;20041;-73
2021/04/04 07:05:14;;;;;;;13.30;2.88;;;;;;;5.07;72.82;102186.03;6247953;28;20529;-73
2021/04/04 07:08:44;;;;;;;15.90;2.70;;;;;;;5.20;73.37;102183.34;6247610;28;20460;-73
2021/04/04 07:11:54;;;;;;;21.33;2.50;;;;;;;5.31;72.56;102178.88;6247658;28;20103;-73
2021/04/04 07:15:06;;;;;;;;;;;;;;;5.44;72.53;102177.91;6248104;28;20046;-73
2021/04/04 07:18:23;;;;;;;14.57;2.53;;;;;;;5.23;73.44;102178.09;6247628;28;19971;-73
2021/04/04 07:21:43;;;;;;;18.38;2.53;;;;;;;5.46;73.22;102183.13;6254987;28;20041;-73
2021/04/04 07:25:00;;;;;;;8.70;2.20;;;;;;;5.25;74.34;102181.53;6256416;28;20045;-72
2021/04/04 07:28:11;;;;;;;15.93;2.83;;;;;;;5.29;74.75;102180.66;6258555;28;20064;-73
2021/04/04 07:31:15;;;;;;;8.68;2.75;;;;;;;5.38;74.79;102185.78;6257075;28;20053;-73
2021/04/04 07:34:19;;;;;;;10.93;2.85;;;;;;;5.58;74.49;102178.63;6256835;28;20052;-73
2021/04/04 07:37:35;;;;;;;11.25;2.45;;;;;;;5.57;74.31;102184.72;6258369;28;20426;-73
2021/04/04 07:40:46;;;;;;;17.98;4.20;;;;;;;5.43;75.35;102190.97;6256917;28;20053;-73
2021/04/04 07:43:53;;;;;;;6.43;2.00;;;;;;;5.45;75.62;102189.19;6257636;28;20102;-74
2021/04/04 07:47:01;;;;;;;10.65;2.33;;;;;;;5.64;74.97;102182.09;6259052;28;20048;-75
2021/04/04 07:50:06;;;;;;;11.02;2.80;;;;;;;5.63;76.37;102186.41;6257322;28;20545;-73
2021/04/04 07:53:17;;;;;;;11.68;2.30;;;;;;;5.27;77.54;102183.28;6260340;28;20128;-75
2021/04/04 07:56:23;;;;;;;10.80;2.53;;;;;;;5.23;78.52;102186.78;6258743;28;20053;-74
2021/04/04 07:59:28;;;;;;;10.95;2.70;;;;;;;5.22;78.82;102189.38;6257101;28;20058;-72
2021/04/04 08:02:31;;;;;;;11.27;2.58;;;;;;;5.24;80.13;102190.25;6268063;28;20053;-73
2021/04/04 08:05:37;;;;;;;8.90;2.40;;;;;;;5.19;80.93;102190.28;6268213;28;20106;-74
2021/04/04 08:08:43;;;;;;;6.05;2.70;;;;;;;5.50;80.26;102190.91;6271185;28;20078;-74
2021/04/04 08:11:52;;;;;;;13.10;2.60;;;;;;;5.35;80.32;102194.47;6271354;28;20091;-73
2021/04/04 08:14:58;;;;;;;13.77;3.22;;;;;;;5.72;79.13;102190.66;6271183;28;20454;-74
2021/04/04 08:18:00;;;;;;;13.48;3.13;;;;;;;5.49;80.01;102188.28;6271299;28;20060;-71
2021/04/04 08:21:03;;;;;;;10.88;3.85;;;;;;;5.56;81.26;102195.19;6271058;28;20045;-74
2021/04/04 08:24:08;;;;;;;12.90;3.47;;;;;;;5.50;82.04;102190.91;6271305;28;20041;-74
2021/04/04 08:27:19;;;;;;;16.85;3.88;;;;;;;5.32;83.27;102199.75;6271238;28;20044;-73
2021/04/04 08:30:26;;;;;;;14.98;3.40;;;;;;;5.48;83.05;102200.47;6271037;28;20498;-72
2021/04/04 08:33:34;;;;;;;15.02;3.67;;;;;;;5.49;84.06;102198.72;6270664;28;20486;-73
2021/04/04 08:36:41;;;;;;;13.68;3.90;;;;;;;5.44;84.65;102201.38;6276195;28;20053;-73
2021/04/04 08:39:47;;;;;;;21.33;4.22;;;;;;;5.63;84.62;102201.19;6275875;28;20063;-73
2021/04/04 08:42:51;;;;;;;14.88;4.53;;;;;;;5.78;82.49;102195.84;6276025;28;20048;-73
2021/04/04 08:45:58;;;;;;;19.50;5.03;;;;;;;5.37;84.76;102196.22;6275991;28;20451;-72
2021/04/04 08:49:00;;;;;;;21.98;4.65;;;;;;;5.33;86.44;102196.25;6275761;28;20429;-72
2021/04/04 08:52:06;;;;;;;12.57;5.72;;;;;;;5.44;85.57;102201.38;6275650;28;20053;-73
2021/04/04 08:55:11;;;;;;;17.08;4.53;;;;;;;5.47;86.93;102198.75;6275992;28;20052;-73
2021/04/04 08:58:16;;;;;;;9.85;4.18;;;;;;;5.76;84.23;102189.75;6275636;28;20445;-72
2021/04/04 09:01:24;;;;;;;15.77;4.53;;;;;;;5.51;84.88;102195.22;6275283;28;20052;-72
2021/04/04 09:04:26;;;;;;;16.48;4.22;;;;;;;5.41;85.73;102201.41;6274813;28;20386;-74
2021/04/04 09:07:27;;;;;;;13.55;3.85;;;;;;;5.30;86.28;102187.59;6275041;28;20417;-73
2021/04/04 09:10:30;;;;;;;13.35;4.10;;;;;;;5.48;85.67;102186.56;6275123;28;20049;-72
2021/04/04 09:13:34;;;;;;;14.32;3.63;;;;;;;5.42;85.64;102184.03;6275040;28;20048;-73
2021/04/04 09:16:35;;;;;;;15.60;5.03;;;;;;;5.45;85.10;102190.09;6275252;28;20114;-73
2021/04/04 09:19:39;;;;;;;10.43;5.07;;;;;;;5.49;85.03;102183.06;6275078;28;20049;-73
2021/04/04 09:22:47;;;;;;;12.20;4.72;;;;;;;5.43;85.29;102185.75;6274775;28;20049;-73
2021/04/04 09:25:51;;;;;;;14.07;4.20;;;;;;;5.44;85.69;102183.09;6274923;28;20489;-74
2021/04/04 09:28:53;;;;;;;15.70;5.00;;;;;;;5.42;85.79;102189.22;6274762;28;20425;-73
2021/04/04 09:31:56;;;;;;;15.18;5.15;;;;;;;5.44;85.36;102188.31;6274636;28;20049;-76
2021/04/04 09:34:59;;;;;;;12.48;4.75;;;;;;;5.53;84.68;102193.47;6274887;28;20049;-76
2021/04/04 09:38:03;;;;;;;14.23;4.72;;;;;;;5.44;86.15;102187.47;6274588;28;20040;-75
2021/04/04 09:41:06;;;;;;;14.77;5.10;;;;;;;5.35;86.16;102189.25;6268970;28;20465;-76
2021/04/04 09:44:09;;;;;;;11.40;5.00;;;;;;;5.50;85.90;102183.06;6270175;28;20053;-76
2021/04/04 09:47:10;;;;;;;16.52;5.28;;;;;;;5.42;84.75;102184.03;6273563;28;20071;-75
2021/04/04 09:50:23;;;;;;;14.40;4.50;;;;;;;5.56;84.36;102179.53;6274154;28;20059;-74
2021/04/04 09:53:35;;;;;;;10.80;4.18;;;;;;;5.50;83.43;102184.81;6274140;28;20090;-74
2021/04/04 09:56:36;;;;;;;18.73;5.40;;;;;;;5.46;82.92;102176.16;6274003;28;20075;-73
2021/04/04 09:59:38;;;;;;;15.85;4.82;;;;;;;5.54;83.47;102169.13;6274112;28;20052;-76
2021/04/04 10:02:39;;;;;;;14.63;4.72;;;;;;;5.62;84.50;102168.19;6273711;28;20413;-74
2021/04/04 10:05:42;;;;;;;18.83;5.18;;;;;;;5.94;82.43;102163.50;6273809;28;20045;-75
2021/04/04 10:08:52;;;;;;;17.08;5.00;;;;;;;5.81;82.43;102160.16;6273794;28;20056;-75
2021/04/04 10:11:59;;;;;;;17.88;5.93;;;;;;;5.80;82.08;102153.19;6273468;28;20239;-74
2021/04/04 10:15:03;;;;;;;18.40;5.20;;;;;;;6.00;80.03;102145.19;6273990;28;20045;-74
2021/04/04 10:18:05;;;;;;;12.50;5.22;;;;;;;5.98;79.66;102146.09;6273498;28;20417;-75
2021/04/04 10:21:08;;;;;;;13.98;5.80;;;;;;;6.19;77.16;102140.59;6273655;28;20056;-76
2021/04/04 10:24:30;;;;;;;16.90;6.75;;;;;;;6.08;77.34;102140.72;6273640;28;20049;-74
2021/04/04 10:27:31;;;;;;;15.52;5.47;;;;;;;5.91;77.96;102142.66;6270030;28;20064;-74
2021/04/04 10:30:35;;;;;;;15.25;6.07;;;;;;;5.87;78.92;102140.09;6273329;28;20057;-77
2021/04/04 10:33:36;;;;;;;16.67;5.53;;;;;;;5.90;78.34;102132.22;6272916;28;20049;-74
2021/04/04 10:36:37;;;;;;;23.23;5.40;;;;;;;5.86;79.24;102136.63;6273324;28;20049;-74
2021/04/04 10:39:38;;;;;;;13.73;5.32;;;;;;;5.70;80.31;102132.47;6273199;28;20468;-77
2021/04/04 10:42:39;;;;;;;14.05;5.28;;;;;;;5.78;80.74;102131.50;6272694;28;20515;-76
2021/04/04 10:45:58;;;;;;;13.15;4.80;;;;;;;5.88;80.93;102121.81;6273406;28;20060;-74
2021/04/04 10:49:01;;;;;;;20.92;4.63;;;;;;;5.70;80.92;102117.66;6272867;28;20067;-75
2021/04/04 10:52:02;;;;;;;15.02;5.82;;;;;;;5.93;78.75;102114.81;6272947;28;20052;-76
2021/04/04 10:55:05;;;;;;;19.02;5.35;;;;;;;5.89;78.61;102094.84;6272849;28;20052;-76
2021/04/04 10:58:06;;;;;;;21.38;5.68;;;;;;;5.99;76.81;102099.09;6272590;28;20075;-75
2021/04/04 11:01:12;;;;;;;16.70;5.25;;;;;;;6.15;77.08;102097.16;6272387;28;20053;-75
2021/04/04 11:04:14;;;;;;;17.00;5.50;;;;;;;6.36;76.40;102090.78;6272512;28;20045;-75
2021/04/04 11:07:15;;;;;;;17.13;5.43;;;;;;;6.20;76.45;102089.25;6272750;28;20080;-75
2021/04/04 11:10:16;;;;;;;21.83;5.65;;;;;;;6.40;75.89;102084.59;6272467;28;20040;-74
2021/04/04 11:13:18;;;;;;;18.55;6.15;;;;;;;6.44;75.69;102085.44;6272505;28;20049;-75
2021/04/04 11:16:25;;;;;;;25.55;6.53;;;;;;;6.38;73.88;102075.09;6272203;28;20052;-75
2021/04/04 11:19:27;;;;;;;16.60;5.18;;;;;;;6.51;73.89;102079.25;6314273;22;20048;-70
2021/04/04 11:22:28;;;;;;;23.55;6.95;;;;;;;6.33;74.43;102075.16;6295745;28;20048;-73
2021/04/04 11:25:30;;;;;;;16.55;5.82;;;;;;;6.41;75.11;102073.31;6296936;28;20044;-73
2021/04/04 11:28:32;;;;;;;14.75;6.13;;;;;;;6.57;74.97;102079.16;6273879;28;20053;-70
2021/04/04 11:31:33;;;;;;;20.42;6.80;;;;;;;6.75;74.68;102088.44;6271873;28;20084;-74
2021/04/04 11:34:38;;;;;;;19.10;5.28;;;;;;;6.70;75.43;102077.22;6271299;28;20049;-73
2021/04/04 11:37:42;;;;;;;14.68;5.88;;;;;;;6.67;75.85;102058.97;6286012;28;20049;-73
2021/04/04 11:40:43;;;;;;;17.48;6.45;;;;;;;6.39;76.49;102064.63;6294479;28;20059;-72
2021/04/04 11:43:45;;;;;;;22.45;7.82;;;;;;;6.18;77.48;102059.72;6289030;28;20471;-73
2021/04/04 11:46:50;;;;;;;14.40;7.05;;;;;;;6.14;78.56;102068.47;6291661;28;20041;-73
2021/04/04 11:49:53;;;;;;;21.85;8.23;;;;;;;6.14;76.49;102052.81;6293290;28;20075;-80
2021/04/04 11:52:54;;;;;;;22.85;7.55;;;;;;;6.16;74.89;102041.47;6293078;28;20080;-79
2021/04/04 11:55:55;;;;;;;22.15;6.57;;;;;;;6.41;73.54;102041.13;6280951;28;20044;-73
2021/04/04 11:58:56;;;;;;;20.17;7.50;;;;;;;6.39;73.04;102035.91;6268205;28;20505;-74
2021/04/04 12:01:58;;;;;;;20.10;6.10;;;;;;;6.66;72.05;102034.59;6270708;28;20048;-73
2021/04/04 12:05:00;;;;;;;22.45;7.05;;;;;;;6.69;70.78;102025.88;6271118;28;20049;-73
2021/04/04 12:08:01;;;;;;;21.50;6.70;;;;;;;6.81;70.23;102023.91;6270962;28;20083;-73
2021/04/04 12:11:03;;;;;;;16.45;5.78;;;;;;;6.77;70.88;102014.41;6270901;28;20049;-72
2021/04/04 12:14:04;;;;;;;20.67;6.97;;;;;;;6.64;70.76;102010.28;6271339;28;20052;-72
2021/04/04 12:17:05;;;;;;;24.90;7.03;;;;;;;6.64;71.14;101999.81;6271128;28;20095;-73
2021/04/04 12:20:08;;;;;;;21.92;7.10;;;;;;;6.93;71.08;101988.00;6271186;28;20460;-72
2021/04/04 12:23:11;;;;;;;20.08;6.55;;;;;;;6.85;70.80;101986.38;6270992;28;20141;-72
2021/04/04 12:26:17;;;;;;;23.50;6.18;;;;;;;6.86;69.69;102000.31;6271380;28;20183;-72
2021/04/04 12:29:18;;;;;;;19.10;6.88;;;;;;;6.75;70.03;101978.72;6271051;28;20106;-72
2021/04/04 12:32:22;;;;;;;21.17;6.60;;;;;;;6.68;71.46;101975.38;6271021;28;20045;-72
2021/04/04 12:35:23;;;;;;;29.98;6.60;;;;;;;6.73;71.04;101967.47;6271452;28;20048;-72
2021/04/04 12:38:25;;;;;;;29.75;6.57;;;;;;;6.83;71.14;101964.63;6271248;28;20048;-72
2021/04/04 12:41:26;;;;;;;16.17;5.70;;;;;;;6.83;71.11;101967.25;6270818;28;20056;-72
2021/04/04 12:44:35;;;;;;;18.77;6.47;;;;;;;6.89;69.63;101958.44;6270863;28;20406;-73
2021/04/04 12:47:39;;;;;;;20.95;5.32;;;;;;;6.81;70.77;101957.69;6271039;28;20048;-72
2021/04/04 12:50:41;;;;;;;19.55;6.70;;;;;;;6.84;70.59;101949.81;6270916;28;20548;-72
2021/04/04 12:53:44;;;;;;;13.23;5.28;;;;;;;7.01;70.13;101949.50;6270808;28;20053;-72
2021/04/04 12:56:45;;;;;;;15.43;6.28;;;;;;;7.01;70.39;101937.31;6270954;28;20045;-72
2021/04/04 12:59:46;;;;;;;16.55;5.07;;;;;;;6.99;70.55;101928.63;6270676;28;20099;-72
2021/04/04 13:02:55;;;;;;;16.45;5.80;;;;;;;6.97;70.83;101919.09;6270600;28;20049;-72
2021/04/04 13:05:56;;;;;;;;;;;;;;;6.95;70.80;101910.41;6271183;28;20049;-73
2021/04/04 13:08:57;;;;;;;19.38;6.25;;;;;;;6.96;70.99;101913.00;6270706;28;20391;-72
2021/04/04 13:11:58;;;;;;;15.32;5.50;;;;;;;6.87;71.59;101905.34;6270655;28;20049;-72
2021/04/04 13:14:59;;;;;;;20.73;6.78;;;;;;;6.91;71.15;101908.78;6270506;28;20052;-72
2021/04/04 13:18:01;;;;;;;16.27;5.97;;;;;;;6.88;71.37;101901.00;6270625;28;20053;-72
2021/04/04 13:21:04;;;;;;;12.93;6.07;;;;;;;6.87;72.32;101894.91;6273220;28;20049;-73
2021/04/04 13:24:15;;;;;;;17.05;6.80;;;;;;;6.92;70.47;101887.84;6275344;28;20167;-72
2021/04/04 13:27:16;;;;;;;19.48;5.82;;;;;;;6.75;71.30;101888.16;6274790;28;20433;-72
2021/04/04 13:30:25;;;;;;;17.70;6.05;;;;;;;6.99;71.99;101878.97;6274926;28;20077;-72
2021/04/04 13:33:26;;;;;;;18.10;6.18;;;;;;;7.24;71.24;101863.63;6274644;28;20045;-72
2021/04/04 13:36:27;;;;;;;20.40;6.90;;;;;;;7.16;70.78;101856.84;6274813;28;20052;-73
2021/04/04 13:39:29;;;;;;;21.55;6.22;;;;;;;7.18;70.64;101850.72;6274705;28;20052;-73
2021/04/04 13:42:30;;;;;;;22.77;6.55;;;;;;;7.46;69.86;101853.56;6274679;28;20049;-73
2021/04/04 13:45:44;;;;;;;26.80;6.35;;;;;;;7.48;68.96;101851.75;6274621;28;20045;-73
2021/04/04 13:48:53;;;;;;;22.35;7.57;;;;;;;7.33;68.75;101845.13;6274661;28;20048;-75
2021/04/04 13:52:08;;;;;;;;;;;;;;;7.38;68.43;101848.50;6274891;28;20061;-73
2021/04/04 13:55:10;;;;;;;22.05;5.63;;;;;;;7.30;69.83;101834.72;6274503;28;19921;-73
2021/04/04 13:58:32;;;;;;;23.52;6.05;;;;;;;7.42;68.08;101835.38;6274191;28;20049;-72
2021/04/04 14:01:34;;;;;;;26.55;7.05;;;;;;;7.33;68.68;101828.59;6274029;28;20053;-73
2021/04/04 14:04:37;;;;;;;18.55;6.65;;;;;;;7.38;67.87;101834.56;6274080;28;20049;-72
2021/04/04 14:07:38;;;;;;;19.60;5.78;;;;;;;7.51;68.29;101830.78;6274378;28;20048;-72
2021/04/04 14:10:39;;;;;;;17.20;6.03;;;;;;;7.35;67.74;101816.31;6274386;28;20049;-72
2021/04/04 14:13:41;;;;;;;16.98;5.85;;;;;;;7.46;67.62;101809.13;6274008;28;20049;-72
2021/04/04 14:16:42;;;;;;;15.35;5.68;;;;;;;7.42;67.22;101810.06;6274063;28;20049;-73
2021/04/04 14:19:44;;;;;;;14.82;5.60;;;;;;;7.64;67.33;101805.19;6273724;28;20063;-72
2021/04/04 14:22:45;;;;;;;15.82;5.93;;;;;;;7.61;66.69;101794.81;6273455;28;20076;-72